Terminal Aerodrome Forecast
Issued by NWS Sterling, VA

Current Version | Previous Version | Graphics & Text | Print | Product List | Glossary Off
Versions: 1 2 3 4 5 6 7 8 9 10 11 12 13 14 15 16 17 18 19 20 21 22 23 24

000
FTUS41 KLWX 191142 RRA
TAFIAD
TAF
KIAD 191142Z 1912/2018 08008KT P6SM OVC250
     FM191500 10012G20KT P6SM OVC200
     FM192200 10010KT 5SM -RA OVC035
     FM200100 09012KT 3SM RA OVC015
     FM200400 10012G22KT 3SM +RA OVC008 WS020/12040KT
     FM200700 09009KT 3SM +RA OVC003 WS020/13040KT
     FM201000 12008KT 5SM -RA OVC003 WS020/14030KT
     FM201400 24005KT P6SM BKN015
     FM201600 22006KT P6SM BKN250=

USA.gov is the U.S. government's official web portal to all federal, state and local government web resources and services.